sensor_id;sensor_type;location;lat;lon;timestamp;temperature;humidity
52203;DHT22;38173;52.850;6.970;2023-02-22T00:00:20;7.90;99.90
52203;DHT22;38173;52.850;6.970;2023-02-22T00:02:55;8.00;99.90
52203;DHT22;38173;52.850;6.970;2023-02-22T00:05:27;8.00;99.90
52203;DHT22;38173;52.850;6.970;2023-02-22T00:07:53;8.00;99.90
52203;DHT22;38173;52.850;6.970;2023-02-22T00:10:21;7.90;99.90
52203;DHT22;38173;52.850;6.970;2023-02-22T00:12:52;7.90;99.90
52203;DHT22;38173;52.850;6.970;2023-02-22T00:15:20;7.90;99.90
52203;DHT22;38173;52.850;6.970;2023-02-22T00:17:48;7.90;99.90
52203;DHT22;38173;52.850;6.970;2023-02-22T00:20:14;7.90;99.90
52203;DHT22;38173;52.850;6.970;2023-02-22T00:22:43;7.90;99.90
52203;DHT22;38173;52.850;6.970;2023-02-22T00:25:11;8.00;99.90
52203;DHT22;38173;52.850;6.970;2023-02-22T00:27:37;7.90;99.90
52203;DHT22;38173;52.850;6.970;2023-02-22T00:30:03;7.90;99.90
52203;DHT22;38173;52.850;6.970;2023-02-22T00:32:29;7.90;99.90
52203;DHT22;38173;52.850;6.970;2023-02-22T00:34:55;8.00;99.90
52203;DHT22;38173;52.850;6.970;2023-02-22T00:37:20;7.90;99.90
52203;DHT22;38173;52.850;6.970;2023-02-22T00:39:46;7.90;99.90
52203;DHT22;38173;52.850;6.970;2023-02-22T00:42:14;7.90;99.90
52203;DHT22;38173;52.850;6.970;2023-02-22T00:44:40;7.90;99.90
52203;DHT22;38173;52.850;6.970;2023-02-22T00:47:06;7.90;99.90
52203;DHT22;38173;52.850;6.970;2023-02-22T00:49:33;7.90;99.90
52203;DHT22;38173;52.850;6.970;2023-02-22T00:51:59;7.90;99.90
52203;DHT22;38173;52.850;6.970;2023-02-22T00:54:25;7.90;99.90
52203;DHT22;38173;52.850;6.970;2023-02-22T00:56:51;7.90;99.90
52203;DHT22;38173;52.850;6.970;2023-02-22T00:59:19;7.90;99.90
52203;DHT22;38173;52.850;6.970;2023-02-22T01:01:45;7.90;99.90
52203;DHT22;38173;52.850;6.970;2023-02-22T01:04:10;7.90;99.90
52203;DHT22;38173;52.850;6.970;2023-02-22T01:06:36;7.90;99.90
52203;DHT22;38173;52.850;6.970;2023-02-22T01:09:02;7.90;99.90
52203;DHT22;38173;52.850;6.970;2023-02-22T01:11:28;7.80;99.90
52203;DHT22;38173;52.850;6.970;2023-02-22T01:13:54;7.80;99.90
52203;DHT22;38173;52.850;6.970;2023-02-22T01:16:23;7.80;99.90
52203;DHT22;38173;52.850;6.970;2023-02-22T01:18:48;7.80;99.90
52203;DHT22;38173;52.850;6.970;2023-02-22T01:21:15;7.90;99.90
52203;DHT22;38173;52.850;6.970;2023-02-22T01:23:43;7.80;99.90
52203;DHT22;38173;52.850;6.970;2023-02-22T01:26:10;7.80;99.90
52203;DHT22;38173;52.850;6.970;2023-02-22T01:28:36;7.80;99.90
52203;DHT22;38173;52.850;6.970;2023-02-22T01:31:02;7.80;99.90
52203;DHT22;38173;52.850;6.970;2023-02-22T01:33:31;7.80;99.90
52203;DHT22;38173;52.850;6.970;2023-02-22T01:35:58;7.80;99.90
52203;DHT22;38173;52.850;6.970;2023-02-22T01:38:24;7.80;99.90
52203;DHT22;38173;52.850;6.970;2023-02-22T01:40:51;7.80;99.90
52203;DHT22;38173;52.850;6.970;2023-02-22T01:45:47;7.80;99.90
52203;DHT22;38173;52.850;6.970;2023-02-22T01:48:15;7.80;99.90
52203;DHT22;38173;52.850;6.970;2023-02-22T01:50:43;7.80;99.90
52203;DHT22;38173;52.850;6.970;2023-02-22T01:53:10;7.80;99.90
52203;DHT22;38173;52.850;6.970;2023-02-22T01:55:38;7.80;99.90
52203;DHT22;38173;52.850;6.970;2023-02-22T01:58:05;7.80;99.90
52203;DHT22;38173;52.850;6.970;2023-02-22T02:00:33;7.80;99.90
52203;DHT22;38173;52.850;6.970;2023-02-22T02:02:59;7.80;99.90
52203;DHT22;38173;52.850;6.970;2023-02-22T02:05:26;7.80;99.90
52203;DHT22;38173;52.850;6.970;2023-02-22T02:07:52;7.80;99.90
52203;DHT22;38173;52.850;6.970;2023-02-22T02:10:19;7.80;99.90
52203;DHT22;38173;52.850;6.970;2023-02-22T02:12:47;7.70;99.90
52203;DHT22;38173;52.850;6.970;2023-02-22T02:15:24;7.80;99.90
52203;DHT22;38173;52.850;6.970;2023-02-22T02:17:50;7.80;99.90
52203;DHT22;38173;52.850;6.970;2023-02-22T02:20:24;7.80;99.90
52203;DHT22;38173;52.850;6.970;2023-02-22T02:28:32;7.80;99.90
52203;DHT22;38173;52.850;6.970;2023-02-22T02:31:06;7.80;99.90
52203;DHT22;38173;52.850;6.970;2023-02-22T02:38:54;7.80;99.90
52203;DHT22;38173;52.850;6.970;2023-02-22T02:43:56;7.80;99.90
52203;DHT22;38173;52.850;6.970;2023-02-22T02:46:25;7.80;99.90
52203;DHT22;38173;52.850;6.970;2023-02-22T02:48:56;7.80;99.90
52203;DHT22;38173;52.850;6.970;2023-02-22T02:51:23;7.70;99.90
52203;DHT22;38173;52.850;6.970;2023-02-22T02:53:51;7.80;99.90
52203;DHT22;38173;52.850;6.970;2023-02-22T02:56:17;7.80;99.90
52203;DHT22;38173;52.850;6.970;2023-02-22T02:58:47;7.70;99.90
52203;DHT22;38173;52.850;6.970;2023-02-22T03:01:16;7.70;99.90
52203;DHT22;38173;52.850;6.970;2023-02-22T03:04:27;7.70;99.90
52203;DHT22;38173;52.850;6.970;2023-02-22T03:06:49;7.70;99.90
52203;DHT22;38173;52.850;6.970;2023-02-22T03:09:26;7.70;99.90
52203;DHT22;38173;52.850;6.970;2023-02-22T03:12:18;7.70;99.90
52203;DHT22;38173;52.850;6.970;2023-02-22T03:17:16;7.70;99.90
52203;DHT22;38173;52.850;6.970;2023-02-22T03:19:49;7.70;99.90
52203;DHT22;38173;52.850;6.970;2023-02-22T03:22:19;7.70;99.90
52203;DHT22;38173;52.850;6.970;2023-02-22T03:27:19;7.70;99.90
52203;DHT22;38173;52.850;6.970;2023-02-22T03:29:46;7.70;99.90
52203;DHT22;38173;52.850;6.970;2023-02-22T03:32:15;7.70;99.90
52203;DHT22;38173;52.850;6.970;2023-02-22T03:34:45;7.70;99.90
52203;DHT22;38173;52.850;6.970;2023-02-22T03:37:18;7.70;99.90
52203;DHT22;38173;52.850;6.970;2023-02-22T03:39:44;7.60;99.90
52203;DHT22;38173;52.850;6.970;2023-02-22T03:42:22;7.70;99.90
52203;DHT22;38173;52.850;6.970;2023-02-22T03:44:50;7.70;99.90
52203;DHT22;38173;52.850;6.970;2023-02-22T03:47:20;7.70;99.90
52203;DHT22;38173;52.850;6.970;2023-02-22T03:49:51;7.60;99.90
52203;DHT22;38173;52.850;6.970;2023-02-22T03:52:18;7.70;99.90
52203;DHT22;38173;52.850;6.970;2023-02-22T03:54:44;7.70;99.90
52203;DHT22;38173;52.850;6.970;2023-02-22T03:57:14;7.60;99.90
52203;DHT22;38173;52.850;6.970;2023-02-22T03:59:44;7.60;99.90
52203;DHT22;38173;52.850;6.970;2023-02-22T04:02:10;7.60;99.90
52203;DHT22;38173;52.850;6.970;2023-02-22T04:04:37;7.60;99.90
52203;DHT22;38173;52.850;6.970;2023-02-22T04:07:03;7.60;99.90
52203;DHT22;38173;52.850;6.970;2023-02-22T04:09:28;7.60;99.90
52203;DHT22;38173;52.850;6.970;2023-02-22T04:11:54;7.60;99.90
52203;DHT22;38173;52.850;6.970;2023-02-22T04:14:19;7.60;99.90
52203;DHT22;38173;52.850;6.970;2023-02-22T04:16:45;7.60;99.90
52203;DHT22;38173;52.850;6.970;2023-02-22T04:19:11;7.50;99.90
52203;DHT22;38173;52.850;6.970;2023-02-22T04:21:36;7.50;99.90
52203;DHT22;38173;52.850;6.970;2023-02-22T04:24:05;7.50;99.90
52203;DHT22;38173;52.850;6.970;2023-02-22T04:26:31;7.50;99.90
52203;DHT22;38173;52.850;6.970;2023-02-22T04:28:56;7.50;99.90
52203;DHT22;38173;52.850;6.970;2023-02-22T04:31:22;7.50;99.90
52203;DHT22;38173;52.850;6.970;2023-02-22T04:33:48;7.50;99.90
52203;DHT22;38173;52.850;6.970;2023-02-22T04:36:13;7.50;99.90
52203;DHT22;38173;52.850;6.970;2023-02-22T04:38:41;7.50;99.90
52203;DHT22;38173;52.850;6.970;2023-02-22T04:41:07;7.50;99.90
52203;DHT22;38173;52.850;6.970;2023-02-22T04:43:32;7.50;99.90
52203;DHT22;38173;52.850;6.970;2023-02-22T04:45:58;7.50;99.90
52203;DHT22;38173;52.850;6.970;2023-02-22T04:48:24;7.50;99.90
52203;DHT22;38173;52.850;6.970;2023-02-22T04:50:50;7.50;99.90
52203;DHT22;38173;52.850;6.970;2023-02-22T04:53:16;7.50;99.90
52203;DHT22;38173;52.850;6.970;2023-02-22T04:55:42;7.50;99.90
52203;DHT22;38173;52.850;6.970;2023-02-22T04:58:08;7.50;99.90
52203;DHT22;38173;52.850;6.970;2023-02-22T05:00:33;7.50;99.90
52203;DHT22;38173;52.850;6.970;2023-02-22T05:02:59;7.40;99.90
52203;DHT22;38173;52.850;6.970;2023-02-22T05:05:25;7.40;99.90
52203;DHT22;38173;52.850;6.970;2023-02-22T05:07:52;7.40;99.90
52203;DHT22;38173;52.850;6.970;2023-02-22T05:10:17;7.40;99.90
52203;DHT22;38173;52.850;6.970;2023-02-22T05:12:43;7.40;99.90
52203;DHT22;38173;52.850;6.970;2023-02-22T05:15:09;7.30;99.90
52203;DHT22;38173;52.850;6.970;2023-02-22T05:17:35;7.30;99.90
52203;DHT22;38173;52.850;6.970;2023-02-22T05:20:01;7.30;99.90
52203;DHT22;38173;52.850;6.970;2023-02-22T05:22:27;7.30;99.90
52203;DHT22;38173;52.850;6.970;2023-02-22T05:24:53;7.30;99.90
52203;DHT22;38173;52.850;6.970;2023-02-22T05:27:21;7.20;99.90
52203;DHT22;38173;52.850;6.970;2023-02-22T05:29:47;7.20;99.90
52203;DHT22;38173;52.850;6.970;2023-02-22T05:32:13;7.20;99.90
52203;DHT22;38173;52.850;6.970;2023-02-22T05:34:39;7.20;99.90
52203;DHT22;38173;52.850;6.970;2023-02-22T05:37:05;7.30;99.90
52203;DHT22;38173;52.850;6.970;2023-02-22T05:39:31;7.20;99.90
52203;DHT22;38173;52.850;6.970;2023-02-22T05:41:57;7.30;99.90
52203;DHT22;38173;52.850;6.970;2023-02-22T05:44:23;7.30;99.90
52203;DHT22;38173;52.850;6.970;2023-02-22T05:46:49;7.30;99.90
52203;DHT22;38173;52.850;6.970;2023-02-22T05:49:15;7.30;99.90
52203;DHT22;38173;52.850;6.970;2023-02-22T05:51:41;7.20;99.90
52203;DHT22;38173;52.850;6.970;2023-02-22T05:54:07;7.30;99.90
52203;DHT22;38173;52.850;6.970;2023-02-22T05:56:33;7.20;99.90
52203;DHT22;38173;52.850;6.970;2023-02-22T05:59:00;7.20;99.90
52203;DHT22;38173;52.850;6.970;2023-02-22T06:01:26;7.30;99.90
52203;DHT22;38173;52.850;6.970;2023-02-22T06:03:53;7.20;99.90
52203;DHT22;38173;52.850;6.970;2023-02-22T06:06:19;7.30;99.90
52203;DHT22;38173;52.850;6.970;2023-02-22T06:08:45;7.30;99.90
52203;DHT22;38173;52.850;6.970;2023-02-22T06:11:11;7.20;99.90
52203;DHT22;38173;52.850;6.970;2023-02-22T06:13:37;7.30;99.90
52203;DHT22;38173;52.850;6.970;2023-02-22T06:16:04;7.30;99.90
52203;DHT22;38173;52.850;6.970;2023-02-22T06:18:29;7.20;99.90
52203;DHT22;38173;52.850;6.970;2023-02-22T06:20:56;7.20;99.90
52203;DHT22;38173;52.850;6.970;2023-02-22T06:23:23;7.20;99.90
52203;DHT22;38173;52.850;6.970;2023-02-22T06:25:48;7.20;99.90
52203;DHT22;38173;52.850;6.970;2023-02-22T06:28:14;7.20;99.90
52203;DHT22;38173;52.850;6.970;2023-02-22T06:30:40;7.10;99.90
52203;DHT22;38173;52.850;6.970;2023-02-22T06:33:07;7.10;99.90
52203;DHT22;38173;52.850;6.970;2023-02-22T06:35:34;7.10;99.90
52203;DHT22;38173;52.850;6.970;2023-02-22T06:38:00;7.10;99.90
52203;DHT22;38173;52.850;6.970;2023-02-22T06:40:25;7.00;99.90
52203;DHT22;38173;52.850;6.970;2023-02-22T06:42:55;7.10;99.90
52203;DHT22;38173;52.850;6.970;2023-02-22T06:45:20;7.10;99.90
52203;DHT22;38173;52.850;6.970;2023-02-22T06:47:47;7.10;99.90
52203;DHT22;38173;52.850;6.970;2023-02-22T06:50:21;7.00;99.90
52203;DHT22;38173;52.850;6.970;2023-02-22T06:52:47;7.00;99.90
52203;DHT22;38173;52.850;6.970;2023-02-22T06:55:20;7.00;99.90
52203;DHT22;38173;52.850;6.970;2023-02-22T06:57:46;7.00;99.90
52203;DHT22;38173;52.850;6.970;2023-02-22T07:00:14;7.00;99.90
52203;DHT22;38173;52.850;6.970;2023-02-22T07:02:39;7.00;99.90
52203;DHT22;38173;52.850;6.970;2023-02-22T07:05:05;7.10;99.90
52203;DHT22;38173;52.850;6.970;2023-02-22T07:07:31;7.00;99.90
52203;DHT22;38173;52.850;6.970;2023-02-22T07:09:57;7.00;99.90
52203;DHT22;38173;52.850;6.970;2023-02-22T07:12:23;7.10;99.90
52203;DHT22;38173;52.850;6.970;2023-02-22T07:14:49;7.10;99.90
52203;DHT22;38173;52.850;6.970;2023-02-22T07:17:16;7.10;99.90
52203;DHT22;38173;52.850;6.970;2023-02-22T07:19:42;7.10;99.90
52203;DHT22;38173;52.850;6.970;2023-02-22T07:22:08;7.10;99.90
52203;DHT22;38173;52.850;6.970;2023-02-22T07:24:34;7.10;99.90
52203;DHT22;38173;52.850;6.970;2023-02-22T07:27:00;7.10;99.90
52203;DHT22;38173;52.850;6.970;2023-02-22T07:29:25;7.10;99.90
52203;DHT22;38173;52.850;6.970;2023-02-22T07:31:51;7.20;99.90
52203;DHT22;38173;52.850;6.970;2023-02-22T07:34:17;7.10;99.90
52203;DHT22;38173;52.850;6.970;2023-02-22T07:36:42;7.20;99.90
52203;DHT22;38173;52.850;6.970;2023-02-22T07:39:08;7.20;99.90
52203;DHT22;38173;52.850;6.970;2023-02-22T07:41:34;7.20;99.90
52203;DHT22;38173;52.850;6.970;2023-02-22T07:43:59;7.30;99.90
52203;DHT22;38173;52.850;6.970;2023-02-22T07:46:25;7.30;99.90
52203;DHT22;38173;52.850;6.970;2023-02-22T07:48:50;7.30;99.90
52203;DHT22;38173;52.850;6.970;2023-02-22T07:51:16;7.30;99.90
52203;DHT22;38173;52.850;6.970;2023-02-22T07:53:47;7.40;99.90
52203;DHT22;38173;52.850;6.970;2023-02-22T07:56:13;7.40;99.90
52203;DHT22;38173;52.850;6.970;2023-02-22T07:58:40;7.40;99.90
52203;DHT22;38173;52.850;6.970;2023-02-22T08:01:05;7.40;99.90
52203;DHT22;38173;52.850;6.970;2023-02-22T08:03:33;7.50;99.90
52203;DHT22;38173;52.850;6.970;2023-02-22T08:06:00;7.50;99.90
52203;DHT22;38173;52.850;6.970;2023-02-22T08:08:27;7.50;99.90
52203;DHT22;38173;52.850;6.970;2023-02-22T08:10:53;7.60;99.90
52203;DHT22;38173;52.850;6.970;2023-02-22T08:13:19;7.60;99.90
52203;DHT22;38173;52.850;6.970;2023-02-22T08:15:46;7.50;99.90
52203;DHT22;38173;52.850;6.970;2023-02-22T08:18:14;7.60;99.90
52203;DHT22;38173;52.850;6.970;2023-02-22T08:20:41;7.60;99.90
52203;DHT22;38173;52.850;6.970;2023-02-22T08:23:07;7.50;99.90
52203;DHT22;38173;52.850;6.970;2023-02-22T08:25:33;7.50;99.90
52203;DHT22;38173;52.850;6.970;2023-02-22T08:27:59;7.50;99.90
52203;DHT22;38173;52.850;6.970;2023-02-22T08:30:25;7.50;99.90
52203;DHT22;38173;52.850;6.970;2023-02-22T08:32:51;7.50;99.90
52203;DHT22;38173;52.850;6.970;2023-02-22T08:35:18;7.40;99.90
52203;DHT22;38173;52.850;6.970;2023-02-22T08:37:46;7.40;99.90
52203;DHT22;38173;52.850;6.970;2023-02-22T08:40:12;7.30;99.90
52203;DHT22;38173;52.850;6.970;2023-02-22T08:42:38;7.40;99.90
52203;DHT22;38173;52.850;6.970;2023-02-22T08:45:04;7.30;99.90
52203;DHT22;38173;52.850;6.970;2023-02-22T08:47:30;7.30;99.90
52203;DHT22;38173;52.850;6.970;2023-02-22T08:49:56;7.20;99.90
52203;DHT22;38173;52.850;6.970;2023-02-22T08:52:21;7.20;99.90
52203;DHT22;38173;52.850;6.970;2023-02-22T08:54:47;7.20;99.90
52203;DHT22;38173;52.850;6.970;2023-02-22T08:57:13;7.10;99.90
52203;DHT22;38173;52.850;6.970;2023-02-22T08:59:39;7.10;99.90
52203;DHT22;38173;52.850;6.970;2023-02-22T09:02:05;7.10;99.90
52203;DHT22;38173;52.850;6.970;2023-02-22T09:04:30;7.10;99.90
52203;DHT22;38173;52.850;6.970;2023-02-22T09:06:56;7.00;99.90
52203;DHT22;38173;52.850;6.970;2023-02-22T09:09:22;7.10;99.90
52203;DHT22;38173;52.850;6.970;2023-02-22T09:11:50;7.10;99.90
52203;DHT22;38173;52.850;6.970;2023-02-22T09:14:15;7.00;99.90
52203;DHT22;38173;52.850;6.970;2023-02-22T09:16:42;7.00;99.90
52203;DHT22;38173;52.850;6.970;2023-02-22T09:19:08;7.00;99.90
52203;DHT22;38173;52.850;6.970;2023-02-22T09:21:34;7.10;99.90
52203;DHT22;38173;52.850;6.970;2023-02-22T09:23:59;7.10;99.90
52203;DHT22;38173;52.850;6.970;2023-02-22T09:26:36;7.10;99.90
52203;DHT22;38173;52.850;6.970;2023-02-22T09:29:07;7.10;99.90
52203;DHT22;38173;52.850;6.970;2023-02-22T09:31:36;7.10;99.90
52203;DHT22;38173;52.850;6.970;2023-02-22T09:34:02;7.10;99.90
52203;DHT22;38173;52.850;6.970;2023-02-22T09:36:28;7.10;99.90
52203;DHT22;38173;52.850;6.970;2023-02-22T09:38:53;7.10;99.90
52203;DHT22;38173;52.850;6.970;2023-02-22T09:41:21;7.10;99.90
52203;DHT22;38173;52.850;6.970;2023-02-22T09:44:11;7.10;99.90
52203;DHT22;38173;52.850;6.970;2023-02-22T09:46:41;7.20;99.90
52203;DHT22;38173;52.850;6.970;2023-02-22T09:51:46;7.20;99.90
52203;DHT22;38173;52.850;6.970;2023-02-22T09:54:18;7.20;99.90
52203;DHT22;38173;52.850;6.970;2023-02-22T09:56:46;7.20;99.90
52203;DHT22;38173;52.850;6.970;2023-02-22T09:59:14;7.20;99.90
52203;DHT22;38173;52.850;6.970;2023-02-22T10:01:47;7.20;99.90
52203;DHT22;38173;52.850;6.970;2023-02-22T10:04:23;7.20;99.90
52203;DHT22;38173;52.850;6.970;2023-02-22T10:09:23;7.20;99.90
52203;DHT22;38173;52.850;6.970;2023-02-22T10:11:54;7.20;99.90
52203;DHT22;38173;52.850;6.970;2023-02-22T10:17:13;7.30;99.90
52203;DHT22;38173;52.850;6.970;2023-02-22T10:22:22;7.40;99.90
52203;DHT22;38173;52.850;6.970;2023-02-22T10:25:02;7.40;99.90
52203;DHT22;38173;52.850;6.970;2023-02-22T10:27:34;7.40;99.90
52203;DHT22;38173;52.850;6.970;2023-02-22T10:30:16;7.40;99.90
52203;DHT22;38173;52.850;6.970;2023-02-22T10:32:44;7.40;99.90
52203;DHT22;38173;52.850;6.970;2023-02-22T10:35:16;7.50;99.90
52203;DHT22;38173;52.850;6.970;2023-02-22T10:37:42;7.50;99.90
52203;DHT22;38173;52.850;6.970;2023-02-22T10:40:13;7.50;99.90
52203;DHT22;38173;52.850;6.970;2023-02-22T10:42:41;7.60;99.90
52203;DHT22;38173;52.850;6.970;2023-02-22T10:45:18;7.50;99.90
52203;DHT22;38173;52.850;6.970;2023-02-22T10:47:45;7.60;99.90
52203;DHT22;38173;52.850;6.970;2023-02-22T10:50:12;7.60;99.90
52203;DHT22;38173;52.850;6.970;2023-02-22T10:52:39;7.60;99.90
52203;DHT22;38173;52.850;6.970;2023-02-22T10:55:11;7.70;99.90
52203;DHT22;38173;52.850;6.970;2023-02-22T10:57:38;7.70;99.90
52203;DHT22;38173;52.850;6.970;2023-02-22T11:02:55;7.80;99.90
52203;DHT22;38173;52.850;6.970;2023-02-22T11:10:45;7.80;99.90
52203;DHT22;38173;52.850;6.970;2023-02-22T11:13:22;7.80;99.90
52203;DHT22;38173;52.850;6.970;2023-02-22T11:15:50;7.90;99.90
52203;DHT22;38173;52.850;6.970;2023-02-22T11:18:28;7.80;99.90
52203;DHT22;38173;52.850;6.970;2023-02-22T11:20:59;7.80;99.90
52203;DHT22;38173;52.850;6.970;2023-02-22T11:23:26;7.80;99.90
52203;DHT22;38173;52.850;6.970;2023-02-22T11:25:58;7.80;99.90
52203;DHT22;38173;52.850;6.970;2023-02-22T11:28:26;7.80;99.90
52203;DHT22;38173;52.850;6.970;2023-02-22T11:30:58;7.80;99.90
52203;DHT22;38173;52.850;6.970;2023-02-22T11:33:33;7.90;99.90
52203;DHT22;38173;52.850;6.970;2023-02-22T11:36:00;8.00;99.90
52203;DHT22;38173;52.850;6.970;2023-02-22T11:41:12;8.10;99.90
52203;DHT22;38173;52.850;6.970;2023-02-22T11:43:41;8.10;99.90
52203;DHT22;38173;52.850;6.970;2023-02-22T11:49:06;8.20;99.90
52203;DHT22;38173;52.850;6.970;2023-02-22T12:05:00;8.50;99.90
52203;DHT22;38173;52.850;6.970;2023-02-22T12:10:19;8.50;99.90
52203;DHT22;38173;52.850;6.970;2023-02-22T12:20:21;8.50;99.90
52203;DHT22;38173;52.850;6.970;2023-02-22T12:22:52;8.50;99.90
52203;DHT22;38173;52.850;6.970;2023-02-22T12:25:21;8.50;99.90
52203;DHT22;38173;52.850;6.970;2023-02-22T12:27:52;8.50;99.90
52203;DHT22;38173;52.850;6.970;2023-02-22T12:30:32;8.50;99.90
52203;DHT22;38173;52.850;6.970;2023-02-22T12:33:02;8.50;99.90
52203;DHT22;38173;52.850;6.970;2023-02-22T12:35:33;8.50;99.90
52203;DHT22;38173;52.850;6.970;2023-02-22T12:38:06;8.60;99.90
52203;DHT22;38173;52.850;6.970;2023-02-22T12:40:45;8.50;99.90
52203;DHT22;38173;52.850;6.970;2023-02-22T12:43:28;8.60;99.90
52203;DHT22;38173;52.850;6.970;2023-02-22T12:51:25;8.60;99.90
52203;DHT22;38173;52.850;6.970;2023-02-22T12:53:58;8.60;99.90
52203;DHT22;38173;52.850;6.970;2023-02-22T12:56:30;8.60;99.90
52203;DHT22;38173;52.850;6.970;2023-02-22T13:01:38;8.70;99.90
52203;DHT22;38173;52.850;6.970;2023-02-22T13:04:04;8.70;99.90
52203;DHT22;38173;52.850;6.970;2023-02-22T13:09:26;8.70;99.90
52203;DHT22;38173;52.850;6.970;2023-02-22T13:20:08;8.90;99.90
52203;DHT22;38173;52.850;6.970;2023-02-22T13:22:36;9.00;99.90
52203;DHT22;38173;52.850;6.970;2023-02-22T13:27:51;9.00;99.90
52203;DHT22;38173;52.850;6.970;2023-02-22T13:30:21;9.10;99.90
52203;DHT22;38173;52.850;6.970;2023-02-22T13:35:25;9.20;99.90
52203;DHT22;38173;52.850;6.970;2023-02-22T13:38:04;9.20;99.90
52203;DHT22;38173;52.850;6.970;2023-02-22T13:40:40;9.30;99.90
52203;DHT22;38173;52.850;6.970;2023-02-22T13:43:12;9.30;99.90
52203;DHT22;38173;52.850;6.970;2023-02-22T13:48:14;9.40;99.90
52203;DHT22;38173;52.850;6.970;2023-02-22T13:53:13;9.50;99.90
52203;DHT22;38173;52.850;6.970;2023-02-22T13:55:42;9.50;99.90
52203;DHT22;38173;52.850;6.970;2023-02-22T13:58:11;9.50;99.90
52203;DHT22;38173;52.850;6.970;2023-02-22T14:00:51;9.60;99.90
52203;DHT22;38173;52.850;6.970;2023-02-22T14:05:49;9.70;99.90
52203;DHT22;38173;52.850;6.970;2023-02-22T14:10:49;9.80;99.90
52203;DHT22;38173;52.850;6.970;2023-02-22T14:13:17;9.80;99.90
52203;DHT22;38173;52.850;6.970;2023-02-22T14:18:30;9.80;99.90
52203;DHT22;38173;52.850;6.970;2023-02-22T14:21:09;9.90;99.90
52203;DHT22;38173;52.850;6.970;2023-02-22T14:23:36;9.90;99.90
52203;DHT22;38173;52.850;6.970;2023-02-22T14:31:19;9.90;99.90
52203;DHT22;38173;52.850;6.970;2023-02-22T14:33:53;9.90;99.90
52203;DHT22;38173;52.850;6.970;2023-02-22T14:36:45;9.90;99.90
52203;DHT22;38173;52.850;6.970;2023-02-22T14:39:17;9.80;99.90
52203;DHT22;38173;52.850;6.970;2023-02-22T14:41:48;9.80;99.90
52203;DHT22;38173;52.850;6.970;2023-02-22T14:44:20;9.70;99.90
52203;DHT22;38173;52.850;6.970;2023-02-22T14:46:47;9.70;99.90
52203;DHT22;38173;52.850;6.970;2023-02-22T14:49:15;9.80;99.90
52203;DHT22;38173;52.850;6.970;2023-02-22T14:51:48;9.80;99.90
52203;DHT22;38173;52.850;6.970;2023-02-22T14:54:35;9.70;99.90
52203;DHT22;38173;52.850;6.970;2023-02-22T14:57:17;9.70;99.90
52203;DHT22;38173;52.850;6.970;2023-02-22T14:59:49;9.70;99.90
52203;DHT22;38173;52.850;6.970;2023-02-22T15:02:17;9.70;99.90
52203;DHT22;38173;52.850;6.970;2023-02-22T15:04:49;9.70;99.90
52203;DHT22;38173;52.850;6.970;2023-02-22T15:07:23;9.70;99.90
52203;DHT22;38173;52.850;6.970;2023-02-22T15:10:14;9.70;99.90
52203;DHT22;38173;52.850;6.970;2023-02-22T15:12:41;9.80;99.90
52203;DHT22;38173;52.850;6.970;2023-02-22T15:15:18;9.70;99.90
52203;DHT22;38173;52.850;6.970;2023-02-22T15:17:47;9.80;99.90
52203;DHT22;38173;52.850;6.970;2023-02-22T15:20:14;9.80;99.90
52203;DHT22;38173;52.850;6.970;2023-02-22T15:22:41;9.80;99.90
52203;DHT22;38173;52.850;6.970;2023-02-22T15:25:07;9.70;99.90
52203;DHT22;38173;52.850;6.970;2023-02-22T15:27:34;9.70;99.90
52203;DHT22;38173;52.850;6.970;2023-02-22T15:30:05;9.70;99.90
52203;DHT22;38173;52.850;6.970;2023-02-22T15:32:33;9.70;99.90
52203;DHT22;38173;52.850;6.970;2023-02-22T15:35:33;9.70;99.90
52203;DHT22;38173;52.850;6.970;2023-02-22T15:37:59;9.60;99.90
52203;DHT22;38173;52.850;6.970;2023-02-22T15:40:27;9.60;99.90
52203;DHT22;38173;52.850;6.970;2023-02-22T15:43:00;9.60;99.90
52203;DHT22;38173;52.850;6.970;2023-02-22T15:45:26;9.60;99.90
52203;DHT22;38173;52.850;6.970;2023-02-22T15:47:53;9.60;99.90
52203;DHT22;38173;52.850;6.970;2023-02-22T15:55:20;9.60;99.90
52203;DHT22;38173;52.850;6.970;2023-02-22T15:57:48;9.50;99.90
52203;DHT22;38173;52.850;6.970;2023-02-22T16:02:46;9.50;99.90
52203;DHT22;38173;52.850;6.970;2023-02-22T16:05:13;9.50;99.90
52203;DHT22;38173;52.850;6.970;2023-02-22T16:07:44;9.50;99.90
52203;DHT22;38173;52.850;6.970;2023-02-22T16:10:31;9.50;99.90
52203;DHT22;38173;52.850;6.970;2023-02-22T16:15:32;9.40;99.90
52203;DHT22;38173;52.850;6.970;2023-02-22T16:18:15;9.40;99.90
52203;DHT22;38173;52.850;6.970;2023-02-22T16:20:40;9.30;99.90
52203;DHT22;38173;52.850;6.970;2023-02-22T16:23:22;9.30;99.90
52203;DHT22;38173;52.850;6.970;2023-02-22T16:26:02;9.20;99.90
52203;DHT22;38173;52.850;6.970;2023-02-22T16:28:28;9.20;99.90
52203;DHT22;38173;52.850;6.970;2023-02-22T16:31:00;9.10;99.90
52203;DHT22;38173;52.850;6.970;2023-02-22T16:33:26;9.10;99.90
52203;DHT22;38173;52.850;6.970;2023-02-22T16:36:01;9.00;99.90
52203;DHT22;38173;52.850;6.970;2023-02-22T16:38:29;8.90;99.90
52203;DHT22;38173;52.850;6.970;2023-02-22T16:40:55;9.00;99.90
52203;DHT22;38173;52.850;6.970;2023-02-22T16:43:29;8.90;99.90
52203;DHT22;38173;52.850;6.970;2023-02-22T16:45:57;8.80;99.90
52203;DHT22;38173;52.850;6.970;2023-02-22T16:48:24;8.80;99.90
52203;DHT22;38173;52.850;6.970;2023-02-22T16:50:50;8.70;99.90
52203;DHT22;38173;52.850;6.970;2023-02-22T16:53:17;8.70;99.90
52203;DHT22;38173;52.850;6.970;2023-02-22T16:55:44;8.60;99.90
52203;DHT22;38173;52.850;6.970;2023-02-22T16:58:14;8.60;99.90
52203;DHT22;38173;52.850;6.970;2023-02-22T17:00:46;8.50;99.90
52203;DHT22;38173;52.850;6.970;2023-02-22T17:03:15;8.50;99.90
52203;DHT22;38173;52.850;6.970;2023-02-22T17:05:41;8.50;99.90
52203;DHT22;38173;52.850;6.970;2023-02-22T17:08:07;8.40;99.90
52203;DHT22;38173;52.850;6.970;2023-02-22T17:10:33;8.40;99.90
52203;DHT22;38173;52.850;6.970;2023-02-22T17:12:58;8.40;99.90
52203;DHT22;38173;52.850;6.970;2023-02-22T17:15:29;8.40;99.90
52203;DHT22;38173;52.850;6.970;2023-02-22T17:17:55;8.40;99.90
52203;DHT22;38173;52.850;6.970;2023-02-22T17:20:27;8.40;99.90
52203;DHT22;38173;52.850;6.970;2023-02-22T17:23:01;8.30;99.90
52203;DHT22;38173;52.850;6.970;2023-02-22T17:25:31;8.30;99.90
52203;DHT22;38173;52.850;6.970;2023-02-22T17:27:57;8.30;99.90
52203;DHT22;38173;52.850;6.970;2023-02-22T17:30:23;8.30;99.90
52203;DHT22;38173;52.850;6.970;2023-02-22T17:32:50;8.30;99.90
52203;DHT22;38173;52.850;6.970;2023-02-22T17:35:17;8.30;99.90
52203;DHT22;38173;52.850;6.970;2023-02-22T17:37:46;8.30;99.90
52203;DHT22;38173;52.850;6.970;2023-02-22T17:40:12;8.30;99.90
52203;DHT22;38173;52.850;6.970;2023-02-22T17:42:41;8.30;99.90
52203;DHT22;38173;52.850;6.970;2023-02-22T17:45:07;8.20;99.90
52203;DHT22;38173;52.850;6.970;2023-02-22T17:47:33;8.30;99.90
52203;DHT22;38173;52.850;6.970;2023-02-22T17:49:59;8.30;99.90
52203;DHT22;38173;52.850;6.970;2023-02-22T17:52:24;8.30;99.90
52203;DHT22;38173;52.850;6.970;2023-02-22T17:54:52;8.30;99.90